createdAt,value
2018-01-26T00:00:33.846Z,0
2018-01-26T00:01:34.361Z,0
2018-01-26T00:02:34.387Z,0
2018-01-26T00:03:34.654Z,0
2018-01-26T00:04:33.912Z,0
2018-01-26T00:05:34.182Z,0
2018-01-26T00:06:34.210Z,0
2018-01-26T00:07:34.723Z,0
2018-01-26T00:08:33.982Z,0
2018-01-26T00:09:34.750Z,0
2018-01-26T00:10:34.277Z,0
2018-01-26T00:11:34.786Z,0
2018-01-26T00:12:34.307Z,0
2018-01-26T00:13:34.570Z,0
2018-01-26T00:14:34.589Z,0
2018-01-26T00:15:34.145Z,0
2018-01-26T00:16:34.880Z,0
2018-01-26T00:17:34.137Z,0
2018-01-26T00:18:34.661Z,0
2018-01-26T00:19:34.682Z,0
2018-01-26T00:20:34.447Z,0
2018-01-26T00:21:34.735Z,0
2018-01-26T00:22:34.486Z,0
2018-01-26T00:23:35.003Z,0
2018-01-26T00:24:34.767Z,0
2018-01-26T00:25:34.778Z,0
2018-01-26T00:26:34.796Z,0
2018-01-26T00:27:34.812Z,0
2018-01-26T00:28:34.341Z,0
2018-01-26T00:29:35.111Z,0
2018-01-26T00:30:35.113Z,0
2018-01-26T00:31:34.630Z,0
2018-01-26T00:32:34.395Z,0
2018-01-26T00:33:34.665Z,0
2018-01-26T00:34:34.962Z,0
2018-01-26T00:35:34.691Z,0
2018-01-26T00:36:34.722Z,0
2018-01-26T00:37:35.243Z,0
2018-01-26T00:38:34.517Z,0
2018-01-26T00:39:34.766Z,0
2018-01-26T00:40:35.293Z,0
2018-01-26T00:41:34.803Z,0
2018-01-26T00:42:35.086Z,0
2018-01-26T00:43:35.339Z,0
2018-01-26T00:44:34.875Z,0
2018-01-26T00:45:35.371Z,0
2018-01-26T00:46:35.339Z,0
2018-01-26T00:47:35.154Z,0
2018-01-26T00:48:34.925Z,0
2018-01-26T00:49:34.949Z,0
2018-01-26T00:50:35.199Z,0
2018-01-26T00:51:35.213Z,0
2018-01-26T00:52:34.994Z,0
2018-01-26T00:53:34.999Z,0
2018-01-26T00:54:35.274Z,0
2018-01-26T00:55:35.293Z,0
2018-01-26T00:56:35.318Z,0
2018-01-26T00:57:35.069Z,0
2018-01-26T00:58:35.106Z,0
2018-01-26T00:59:35.100Z,0
2018-01-26T01:00:35.369Z,0
2018-01-26T01:01:35.390Z,0
2018-01-26T01:02:34.919Z,0
2018-01-26T01:03:34.922Z,0
2018-01-26T01:04:35.189Z,0
2018-01-26T01:05:34.981Z,0
2018-01-26T01:06:35.223Z,0
2018-01-26T01:07:34.999Z,0
2018-01-26T01:08:35.529Z,0
2018-01-26T01:09:35.530Z,0
2018-01-26T01:10:35.296Z,0
2018-01-26T01:11:35.313Z,0
2018-01-26T01:12:35.582Z,0
2018-01-26T01:13:35.100Z,0
2018-01-26T01:14:35.379Z,0
2018-01-26T01:15:35.905Z,0
2018-01-26T01:16:35.904Z,0
2018-01-26T01:17:35.675Z,0
2018-01-26T01:18:35.958Z,0
2018-01-26T01:19:35.962Z,0
2018-01-26T01:20:35.480Z,0
2018-01-26T01:21:35.745Z,0
2018-01-26T01:22:35.507Z,0
2018-01-26T01:23:35.545Z,0
2018-01-26T01:24:36.047Z,0
2018-01-26T01:25:35.327Z,0
2018-01-26T01:26:35.580Z,0
2018-01-26T01:27:36.103Z,0
2018-01-26T01:28:35.361Z,0
2018-01-26T01:29:36.147Z,0
2018-01-26T01:30:35.906Z,0
2018-01-26T01:31:36.170Z,0
2018-01-26T01:32:36.206Z,0
2018-01-26T01:33:35.955Z,0
2018-01-26T01:34:36.211Z,0
2018-01-26T01:35:35.745Z,0
2018-01-26T01:36:36.001Z,0
2018-01-26T01:37:36.017Z,0
2018-01-26T01:38:35.780Z,0
2018-01-26T01:39:36.056Z,0
2018-01-26T01:40:36.324Z,0
2018-01-26T01:41:36.115Z,0
2018-01-26T01:42:35.603Z,0
2018-01-26T01:43:35.872Z,0
2018-01-26T01:44:36.390Z,0
2018-01-26T01:45:35.950Z,0
2018-01-26T01:46:35.933Z,0
2018-01-26T01:47:36.464Z,0
2018-01-26T01:48:35.954Z,0
2018-01-26T01:49:36.218Z,0
2018-01-26T01:50:35.989Z,0
2018-01-26T01:51:35.998Z,0
2018-01-26T01:52:35.787Z,0
2018-01-26T01:53:36.037Z,0
2018-01-26T01:54:36.067Z,0
2018-01-26T01:55:36.071Z,0
2018-01-26T01:56:36.597Z,0
2018-01-26T01:57:35.857Z,0
2018-01-26T01:58:36.143Z,0
2018-01-26T01:59:36.141Z,0
2018-01-26T02:00:35.906Z,0
2018-01-26T02:01:36.424Z,0
2018-01-26T02:02:36.203Z,0
2018-01-26T02:03:36.200Z,0
2018-01-26T02:04:36.216Z,0
2018-01-26T02:05:36.523Z,0
2018-01-26T02:06:36.758Z,0
2018-01-26T02:07:36.267Z,0
2018-01-26T02:08:36.288Z,0
2018-01-26T02:09:36.305Z,0
2018-01-26T02:10:36.837Z,0
2018-01-26T02:11:36.347Z,0
2018-01-26T02:12:36.110Z,0
2018-01-26T02:13:36.388Z,0
2018-01-26T02:14:36.905Z,0
2018-01-26T02:15:36.670Z,0
2018-01-26T02:16:36.686Z,0
2018-01-26T02:17:36.446Z,0
2018-01-26T02:18:36.217Z,0
2018-01-26T02:19:36.478Z,0
2018-01-26T02:20:36.748Z,0
2018-01-26T02:21:36.517Z,0
2018-01-26T02:22:36.532Z,0
2018-01-26T02:23:36.300Z,0
2018-01-26T02:24:36.842Z,0
2018-01-26T02:25:36.835Z,0
2018-01-26T02:26:36.600Z,0
2018-01-26T02:27:36.626Z,0
2018-01-26T02:28:36.633Z,0
2018-01-26T02:29:36.899Z,0
2018-01-26T02:30:36.673Z,0
2018-01-26T02:31:37.244Z,0
2018-01-26T02:32:36.956Z,0
2018-01-26T02:33:36.725Z,0
2018-01-26T02:34:36.733Z,0
2018-01-26T02:35:37.005Z,0
2018-01-26T02:36:36.775Z,0
2018-01-26T02:37:37.289Z,0
2018-01-26T02:38:37.054Z,0
2018-01-26T02:39:36.822Z,0
2018-01-26T02:40:36.836Z,0
2018-01-26T02:41:37.109Z,0
2018-01-26T02:42:37.124Z,0
2018-01-26T02:43:37.390Z,0
2018-01-26T02:44:36.903Z,0
2018-01-26T02:45:36.921Z,0
2018-01-26T02:46:37.439Z,0
2018-01-26T02:47:37.010Z,0
2018-01-26T02:48:36.473Z,0
2018-01-26T02:49:36.993Z,0
2018-01-26T02:50:37.005Z,0
2018-01-26T02:51:37.278Z,0
2018-01-26T02:52:37.044Z,0
2018-01-26T02:53:37.080Z,0
2018-01-26T02:54:36.588Z,0
2018-01-26T02:55:37.358Z,0
2018-01-26T02:56:37.111Z,0
2018-01-26T02:57:37.389Z,0
2018-01-26T02:58:37.693Z,0
2018-01-26T02:59:37.161Z,0
2018-01-26T03:00:37.181Z,0
2018-01-26T03:01:37.456Z,0
2018-01-26T03:02:37.213Z,0
2018-01-26T03:03:37.233Z,0
2018-01-26T03:04:37.012Z,0
2018-01-26T03:05:37.016Z,0
2018-01-26T03:06:37.785Z,0
2018-01-26T03:07:37.563Z,0
2018-01-26T03:08:37.579Z,0
2018-01-26T03:09:37.361Z,0
2018-01-26T03:10:37.341Z,0
2018-01-26T03:11:37.881Z,0
2018-01-26T03:12:37.129Z,0
2018-01-26T03:13:37.146Z,0
2018-01-26T03:14:37.910Z,0
2018-01-26T03:15:37.680Z,0
2018-01-26T03:16:37.771Z,0
2018-01-26T03:17:37.463Z,0
2018-01-26T03:18:37.276Z,0
2018-01-26T03:19:37.998Z,0
2018-01-26T03:20:37.510Z,0
2018-01-26T03:21:37.533Z,0
2018-01-26T03:22:37.555Z,0
2018-01-26T03:23:38.082Z,0
2018-01-26T03:24:37.600Z,0
2018-01-26T03:25:37.359Z,0
2018-01-26T03:26:37.867Z,0
2018-01-26T03:27:37.624Z,0
2018-01-26T03:28:37.409Z,0
2018-01-26T03:29:37.661Z,0
2018-01-26T03:30:37.716Z,0
2018-01-26T03:31:38.215Z,0
2018-01-26T03:32:37.964Z,0
2018-01-26T03:33:38.242Z,0
2018-01-26T03:34:38.271Z,0
2018-01-26T03:35:38.019Z,0
2018-01-26T03:36:37.786Z,0
2018-01-26T03:37:37.855Z,0
2018-01-26T03:38:37.813Z,0
2018-01-26T03:39:38.338Z,0
2018-01-26T03:40:37.848Z,0
2018-01-26T03:41:38.118Z,0
2018-01-26T03:42:38.383Z,0
2018-01-26T03:43:38.404Z,0
2018-01-26T03:44:37.913Z,0
2018-01-26T03:45:38.437Z,0
2018-01-26T03:46:38.212Z,0
2018-01-26T03:47:37.969Z,0
2018-01-26T03:48:38.531Z,0
2018-01-26T03:49:37.844Z,0
2018-01-26T03:50:37.762Z,0
2018-01-26T03:51:38.106Z,0
2018-01-26T03:52:38.066Z,0
2018-01-26T03:53:38.323Z,0
2018-01-26T03:54:38.575Z,0
2018-01-26T03:55:37.841Z,0
2018-01-26T03:56:38.369Z,0
2018-01-26T03:57:37.886Z,0
2018-01-26T03:58:37.640Z,0
2018-01-26T03:59:38.411Z,0
2018-01-26T04:00:38.695Z,0
2018-01-26T04:01:38.439Z,0
2018-01-26T04:02:38.212Z,0
2018-01-26T04:03:37.970Z,0
2018-01-26T04:04:38.499Z,0
2018-01-26T04:05:38.265Z,0
2018-01-26T04:06:38.030Z,0
2018-01-26T04:07:38.492Z,0
2018-01-26T04:08:38.376Z,0
2018-01-26T04:09:38.581Z,0
2018-01-26T04:10:38.357Z,0
2018-01-26T04:11:38.368Z,0
2018-01-26T04:12:38.383Z,0
2018-01-26T04:13:38.396Z,0
2018-01-26T04:14:38.161Z,0
2018-01-26T04:15:38.684Z,0
2018-01-26T04:16:38.951Z,0
2018-01-26T04:17:38.734Z,0
2018-01-26T04:18:38.488Z,0
2018-01-26T04:19:38.741Z,0
2018-01-26T04:20:39.021Z,0
2018-01-26T04:21:39.031Z,0
2018-01-26T04:22:38.542Z,0
2018-01-26T04:23:38.812Z,0
2018-01-26T04:24:38.587Z,0
2018-01-26T04:25:38.847Z,0
2018-01-26T04:26:38.358Z,0
2018-01-26T04:27:38.879Z,0
2018-01-26T04:28:38.649Z,0
2018-01-26T04:29:38.664Z,0
2018-01-26T04:30:38.682Z,0
2018-01-26T04:31:38.741Z,0
2018-01-26T04:32:38.959Z,0
2018-01-26T04:33:38.468Z,0
2018-01-26T04:34:38.991Z,0
2018-01-26T04:35:39.261Z,0
2018-01-26T04:36:38.826Z,0
2018-01-26T04:37:39.034Z,0
2018-01-26T04:38:39.044Z,0
2018-01-26T04:39:38.816Z,0
2018-01-26T04:40:39.080Z,0
2018-01-26T04:41:39.110Z,0
2018-01-26T04:42:39.115Z,0
2018-01-26T04:43:39.131Z,0
2018-01-26T04:44:39.157Z,0
2018-01-26T04:45:38.932Z,0
2018-01-26T04:46:38.932Z,0
2018-01-26T04:47:39.503Z,0
2018-01-26T04:48:38.965Z,0
2018-01-26T04:49:38.747Z,0
2018-01-26T04:50:38.757Z,0
2018-01-26T04:51:39.267Z,0
2018-01-26T04:52:39.302Z,0
2018-01-26T04:53:39.302Z,0
2018-01-26T04:54:39.076Z,0
2018-01-26T04:55:38.834Z,0
2018-01-26T04:56:38.849Z,0
2018-01-26T04:57:39.373Z,0
2018-01-26T04:58:39.383Z,0
2018-01-26T04:59:39.149Z,0
2018-01-26T05:00:39.163Z,0
2018-01-26T05:01:39.435Z,0
2018-01-26T05:02:39.701Z,0
2018-01-26T05:03:38.715Z,0
2018-01-26T05:04:38.980Z,0
2018-01-26T05:05:38.747Z,0
2018-01-26T05:06:39.272Z,0
2018-01-26T05:07:39.286Z,0
2018-01-26T05:08:39.791Z,0
2018-01-26T05:09:39.055Z,0
2018-01-26T05:10:39.323Z,0
2018-01-26T05:11:39.097Z,0
2018-01-26T05:12:39.613Z,0
2018-01-26T05:13:39.124Z,0
2018-01-26T05:14:39.410Z,0
2018-01-26T05:15:39.428Z,0
2018-01-26T05:16:39.179Z,0
2018-01-26T05:17:39.701Z,0
2018-01-26T05:18:39.468Z,0
2018-01-26T05:19:39.731Z,0
2018-01-26T05:20:39.487Z,0
2018-01-26T05:21:39.781Z,0
2018-01-26T05:22:39.284Z,0
2018-01-26T05:23:39.301Z,0
2018-01-26T05:24:39.849Z,0
2018-01-26T05:25:39.827Z,0
2018-01-26T05:26:39.840Z,0
2018-01-26T05:27:40.112Z,0
2018-01-26T05:28:40.127Z,0
2018-01-26T05:29:39.900Z,0
2018-01-26T05:30:40.160Z,0
2018-01-26T05:31:39.407Z,0
2018-01-26T05:32:39.924Z,0
2018-01-26T05:33:40.210Z,0
2018-01-26T05:34:39.965Z,0
2018-01-26T05:35:39.972Z,0
2018-01-26T05:36:40.250Z,0
2018-01-26T05:37:40.023Z,0
2018-01-26T05:38:39.782Z,0
2018-01-26T05:39:39.300Z,0
2018-01-26T05:40:40.073Z,0
2018-01-26T05:41:40.078Z,0
2018-01-26T05:42:40.113Z,0
2018-01-26T05:43:39.878Z,0
2018-01-26T05:44:40.395Z,0
2018-01-26T05:45:39.904Z,0
2018-01-26T05:46:40.186Z,0
2018-01-26T05:47:40.180Z,0
2018-01-26T05:48:39.709Z,0
2018-01-26T05:49:40.213Z,0
2018-01-26T05:50:39.975Z,0
2018-01-26T05:51:39.988Z,0
2018-01-26T05:52:40.009Z,0
2018-01-26T05:53:40.287Z,0
2018-01-26T05:54:40.042Z,0
2018-01-26T05:55:40.308Z,0
2018-01-26T05:56:40.583Z,0
2018-01-26T05:57:40.106Z,0
2018-01-26T05:58:39.866Z,0
2018-01-26T05:59:40.371Z,0
2018-01-26T06:00:40.386Z,0
2018-01-26T06:01:40.156Z,0
2018-01-26T06:02:40.168Z,0
2018-01-26T06:03:40.192Z,0
2018-01-26T06:04:40.454Z,0
2018-01-26T06:05:39.736Z,0
2018-01-26T06:06:40.737Z,0
2018-01-26T06:07:40.250Z,0
2018-01-26T06:08:40.520Z,0
2018-01-26T06:09:40.785Z,0
2018-01-26T06:10:40.554Z,0
2018-01-26T06:11:40.564Z,0
2018-01-26T06:12:40.330Z,0
2018-01-26T06:13:40.855Z,0
2018-01-26T06:14:40.618Z,0
2018-01-26T06:15:40.645Z,0
2018-01-26T06:16:40.643Z,0
2018-01-26T06:17:40.703Z,0
2018-01-26T06:18:40.427Z,0
2018-01-26T06:19:40.688Z,0
2018-01-26T06:20:40.211Z,0
2018-01-26T06:21:40.475Z,0
2018-01-26T06:22:40.745Z,0
2018-01-26T06:23:40.257Z,0
2018-01-26T06:24:40.770Z,0
2018-01-26T06:25:40.813Z,0
2018-01-26T06:26:40.553Z,0
2018-01-26T06:27:40.325Z,0
2018-01-26T06:28:40.585Z,0
2018-01-26T06:29:40.855Z,0
2018-01-26T06:30:40.381Z,0
2018-01-26T06:31:41.142Z,0
2018-01-26T06:32:41.160Z,0
2018-01-26T06:33:40.417Z,0
2018-01-26T06:34:40.953Z,0
2018-01-26T06:35:40.707Z,0
2018-01-26T06:36:40.969Z,0
2018-01-26T06:37:40.996Z,0
2018-01-26T06:38:40.998Z,0
2018-01-26T06:39:40.508Z,0
2018-01-26T06:40:40.782Z,0
2018-01-26T06:41:41.426Z,0
2018-01-26T06:42:41.070Z,0
2018-01-26T06:43:41.075Z,0
2018-01-26T06:44:40.613Z,0
2018-01-26T06:45:40.866Z,0
2018-01-26T06:46:40.633Z,0
2018-01-26T06:47:41.415Z,0
2018-01-26T06:48:40.904Z,0
2018-01-26T06:49:41.200Z,5
2018-01-26T06:50:40.687Z,5
2018-01-26T06:51:41.209Z,5
2018-01-26T06:52:40.986Z,5
2018-01-26T06:53:41.541Z,5
2018-01-26T06:54:41.592Z,5
2018-01-26T06:55:41.268Z,5
2018-01-26T06:56:41.054Z,5
2018-01-26T06:57:41.049Z,5
2018-01-26T06:58:41.071Z,5
2018-01-26T06:59:41.123Z,5
2018-01-26T07:00:41.602Z,5
2018-01-26T07:01:40.866Z,10
2018-01-26T07:02:41.379Z,10
2018-01-26T07:03:41.159Z,10
2018-01-26T07:04:41.679Z,10
2018-01-26T07:05:41.433Z,10
2018-01-26T07:06:41.200Z,10
2018-01-26T07:07:41.713Z,15
2018-01-26T07:08:41.226Z,15
2018-01-26T07:09:41.743Z,15
2018-01-26T07:10:41.759Z,15
2018-01-26T07:11:41.031Z,15
2018-01-26T07:12:41.292Z,15
2018-01-26T07:13:41.603Z,20
2018-01-26T07:14:41.586Z,20
2018-01-26T07:15:41.341Z,20
2018-01-26T07:16:41.107Z,20
2018-01-26T07:17:41.391Z,20
2018-01-26T07:18:41.151Z,20
2018-01-26T07:19:41.655Z,25
2018-01-26T07:20:41.165Z,25
2018-01-26T07:21:41.703Z,25
2018-01-26T07:22:41.461Z,25
2018-01-26T07:23:41.970Z,25
2018-01-26T07:24:41.991Z,25
2018-01-26T07:25:41.246Z,25
2018-01-26T07:26:41.269Z,25
2018-01-26T07:27:41.813Z,30
2018-01-26T07:28:41.542Z,30
2018-01-26T07:29:41.311Z,30
2018-01-26T07:30:41.371Z,30
2018-01-26T07:31:41.592Z,30
2018-01-26T07:32:42.112Z,35
2018-01-26T07:33:41.381Z,35
2018-01-26T07:34:41.642Z,35
2018-01-26T07:35:42.157Z,35
2018-01-26T07:36:41.992Z,40
2018-01-26T07:37:41.945Z,40
2018-01-26T07:38:41.703Z,40
2018-01-26T07:39:41.737Z,40
2018-01-26T07:40:42.008Z,40
2018-01-26T07:41:41.751Z,45
2018-01-26T07:42:42.019Z,45
2018-01-26T07:43:41.824Z,45
2018-01-26T07:44:41.809Z,45
2018-01-26T07:45:42.070Z,50
2018-01-26T07:46:42.339Z,50
2018-01-26T07:47:41.875Z,50
2018-01-26T07:48:42.378Z,50
2018-01-26T07:49:42.468Z,50
2018-01-26T07:50:42.433Z,55
2018-01-26T07:51:41.663Z,55
2018-01-26T07:52:41.928Z,55
2018-01-26T07:53:41.940Z,55
2018-01-26T07:54:41.962Z,60
2018-01-26T07:55:41.736Z,60
2018-01-26T07:56:42.248Z,60
2018-01-26T07:57:41.762Z,65
2018-01-26T07:58:42.043Z,65
2018-01-26T07:59:42.044Z,70
2018-01-26T08:00:42.313Z,70
2018-01-26T08:01:41.820Z,70
2018-01-26T08:02:42.107Z,70
2018-01-26T08:03:42.357Z,75
2018-01-26T08:04:42.151Z,75
2018-01-26T08:05:42.151Z,75
2018-01-26T08:06:42.656Z,80
2018-01-26T08:07:42.461Z,80
2018-01-26T08:08:42.443Z,85
2018-01-26T08:09:42.456Z,85
2018-01-26T08:10:42.223Z,85
2018-01-26T08:11:42.244Z,90
2018-01-26T08:12:42.877Z,90
2018-01-26T08:13:42.779Z,90
2018-01-26T08:14:42.037Z,95
2018-01-26T08:15:42.559Z,95
2018-01-26T08:16:42.336Z,95
2018-01-26T08:17:42.840Z,95
2018-01-26T08:18:42.355Z,100
2018-01-26T08:19:42.624Z,100
2018-01-26T08:20:42.897Z,105
2018-01-26T08:21:42.402Z,105
2018-01-26T08:22:42.693Z,110
2018-01-26T08:23:42.443Z,115
2018-01-26T08:24:42.969Z,115
2018-01-26T08:25:42.472Z,120
2018-01-26T08:26:42.485Z,125
2018-01-26T08:27:42.012Z,130
2018-01-26T08:28:42.276Z,130
2018-01-26T08:29:42.542Z,130
2018-01-26T08:30:42.303Z,135
2018-01-26T08:31:42.577Z,135
2018-01-26T08:32:42.593Z,140
2018-01-26T08:33:42.869Z,140
2018-01-26T08:34:42.625Z,145
2018-01-26T08:35:42.639Z,100
2018-01-26T08:36:42.661Z,150
2018-01-26T08:37:42.983Z,150
2018-01-26T08:38:42.689Z,155
2018-01-26T08:39:43.211Z,155
2018-01-26T08:40:42.725Z,160
2018-01-26T08:41:43.265Z,165
2018-01-26T08:42:43.014Z,170
2018-01-26T08:43:43.029Z,170
2018-01-26T08:44:42.787Z,175
2018-01-26T08:45:42.557Z,175
2018-01-26T08:46:43.085Z,180
2018-01-26T08:47:43.352Z,180
2018-01-26T08:48:42.355Z,180
2018-01-26T08:49:42.624Z,185
2018-01-26T08:50:42.899Z,180
2018-01-26T08:51:42.668Z,180
2018-01-26T08:52:42.931Z,180
2018-01-26T08:53:42.973Z,180
2018-01-26T08:54:43.238Z,180
2018-01-26T08:55:43.485Z,180
2018-01-26T08:56:42.744Z,180
2018-01-26T08:57:43.025Z,180
2018-01-26T08:58:43.286Z,180
2018-01-26T08:59:43.331Z,180
2018-01-26T09:00:43.632Z,180
2018-01-26T09:01:43.356Z,180
2018-01-26T09:02:42.858Z,180
2018-01-26T09:03:42.627Z,180
2018-01-26T09:04:43.155Z,180
2018-01-26T09:05:43.412Z,175
2018-01-26T09:06:43.175Z,175
2018-01-26T09:07:43.203Z,175
2018-01-26T09:08:42.955Z,175
2018-01-26T09:09:43.480Z,175
2018-01-26T09:10:42.994Z,175
2018-01-26T09:11:43.015Z,175
2018-01-26T09:12:43.531Z,175
2018-01-26T09:13:43.807Z,175
2018-01-26T09:14:43.569Z,175
2018-01-26T09:15:43.609Z,175
2018-01-26T09:16:43.104Z,175
2018-01-26T09:17:43.374Z,175
2018-01-26T09:18:43.895Z,180
2018-01-26T09:19:43.674Z,180
2018-01-26T09:20:43.679Z,180
2018-01-26T09:21:43.535Z,185
2018-01-26T09:22:43.460Z,190
2018-01-26T09:23:43.986Z,190
2018-01-26T09:24:43.500Z,195
2018-01-26T09:25:44.020Z,195
2018-01-26T09:26:43.788Z,205
2018-01-26T09:27:43.558Z,205
2018-01-26T09:28:43.595Z,205
2018-01-26T09:29:43.594Z,205
2018-01-26T09:30:43.363Z,210
2018-01-26T09:31:43.625Z,210
2018-01-26T09:32:43.706Z,210
2018-01-26T09:33:43.414Z,210
2018-01-26T09:34:43.939Z,215
2018-01-26T09:35:43.957Z,220
2018-01-26T09:36:43.980Z,220
2018-01-26T09:37:43.736Z,225
2018-01-26T09:38:44.013Z,225
2018-01-26T09:39:44.092Z,230
2018-01-26T09:40:44.298Z,235
2018-01-26T09:41:43.323Z,240
2018-01-26T09:42:43.833Z,245
2018-01-26T09:43:43.596Z,250
2018-01-26T09:44:43.866Z,255
2018-01-26T09:45:43.383Z,260
2018-01-26T09:46:44.154Z,260
2018-01-26T09:47:44.427Z,275
2018-01-26T09:48:44.541Z,280
2018-01-26T09:49:43.967Z,280
2018-01-26T09:50:44.058Z,280
2018-01-26T09:51:44.254Z,290
2018-01-26T09:52:44.280Z,290
2018-01-26T09:53:44.298Z,290
2018-01-26T09:54:44.557Z,295
2018-01-26T09:55:44.327Z,295
2018-01-26T09:56:44.344Z,305
2018-01-26T09:57:44.617Z,305
2018-01-26T09:58:43.877Z,310
2018-01-26T09:59:44.662Z,315
2018-01-26T10:00:44.809Z,325
2018-01-26T10:01:43.683Z,325
2018-01-26T10:02:44.713Z,325
2018-01-26T10:03:44.480Z,330
2018-01-26T10:04:43.991Z,345
2018-01-26T10:05:44.516Z,350
2018-01-26T10:06:44.290Z,350
2018-01-26T10:07:44.803Z,360
2018-01-26T10:08:44.341Z,365
2018-01-26T10:09:44.841Z,375
2018-01-26T10:10:44.360Z,390
2018-01-26T10:11:44.626Z,470
2018-01-26T10:12:44.894Z,545
2018-01-26T10:13:44.411Z,555
2018-01-26T10:14:44.681Z,535
2018-01-26T10:15:44.764Z,560
2018-01-26T10:16:44.480Z,565
2018-01-26T10:17:44.744Z,590
2018-01-26T10:18:44.765Z,575
2018-01-26T10:19:44.540Z,580
2018-01-26T10:20:44.571Z,595
2018-01-26T10:21:44.576Z,585
2018-01-26T10:22:44.807Z,615
2018-01-26T10:23:44.244Z,625
2018-01-26T10:24:44.938Z,625
2018-01-26T10:25:44.927Z,680
2018-01-26T10:26:44.677Z,695
2018-01-26T10:27:44.952Z,685
2018-01-26T10:28:44.969Z,725
2018-01-26T10:29:45.082Z,805
2018-01-26T10:30:44.511Z,875
2018-01-26T10:31:44.532Z,900
2018-01-26T10:32:45.314Z,940
2018-01-26T10:33:45.081Z,950
2018-01-26T10:34:44.607Z,840
2018-01-26T10:35:44.876Z,820
2018-01-26T10:36:44.663Z,710
2018-01-26T10:37:45.172Z,730
2018-01-26T10:38:45.452Z,815
2018-01-26T10:39:45.224Z,960
2018-01-26T10:40:44.736Z,925
2018-01-26T10:41:45.016Z,875
2018-01-26T10:42:45.296Z,715
2018-01-26T10:43:45.312Z,655
2018-01-26T10:44:45.334Z,660
2018-01-26T10:45:45.606Z,660
2018-01-26T10:46:45.382Z,645
2018-01-26T10:47:45.472Z,685
2018-01-26T10:48:45.184Z,600
2018-01-26T10:49:45.452Z,735
2018-01-26T10:50:45.474Z,670
2018-01-26T10:51:45.500Z,610
2018-01-26T10:52:45.306Z,640
2018-01-26T10:53:45.550Z,685
2018-01-26T10:54:45.317Z,710
2018-01-26T10:55:44.856Z,705
2018-01-26T10:56:45.616Z,680
2018-01-26T10:57:45.415Z,710
2018-01-26T10:58:45.426Z,645
2018-01-26T10:59:45.761Z,680
2018-01-26T11:00:45.208Z,740
2018-01-26T11:01:45.991Z,660
2018-01-26T11:02:45.531Z,625
2018-01-26T11:03:45.280Z,545
2018-01-26T11:04:45.803Z,545
2018-01-26T11:05:45.580Z,655
2018-01-26T11:06:45.866Z,605
2018-01-26T11:07:45.877Z,590
2018-01-26T11:08:45.647Z,640
2018-01-26T11:09:45.416Z,700
2018-01-26T11:10:45.199Z,780
2018-01-26T11:11:45.995Z,765
2018-01-26T11:12:45.493Z,840
2018-01-26T11:13:46.020Z,955
2018-01-26T11:14:45.795Z,955
2018-01-26T11:15:45.569Z,895
2018-01-26T11:16:45.842Z,860
2018-01-26T11:17:46.412Z,705
2018-01-26T11:18:46.167Z,650
2018-01-26T11:19:45.917Z,760
2018-01-26T11:20:45.936Z,790
2018-01-26T11:21:46.212Z,805
2018-01-26T11:22:45.985Z,790
2018-01-26T11:23:45.775Z,1050
2018-01-26T11:24:46.039Z,1320
2018-01-26T11:25:46.315Z,1310
2018-01-26T11:26:46.088Z,1365
2018-01-26T11:27:46.374Z,1400
2018-01-26T11:28:46.136Z,1275
2018-01-26T11:29:46.181Z,1300
2018-01-26T11:30:46.445Z,1565
2018-01-26T11:31:46.464Z,1615
2018-01-26T11:32:46.492Z,1785
2018-01-26T11:33:46.314Z,1600
2018-01-26T11:34:46.299Z,1645
2018-01-26T11:35:46.321Z,1725
2018-01-26T11:36:46.607Z,1620
2018-01-26T11:37:46.619Z,1450
2018-01-26T11:38:46.405Z,1190
2018-01-26T11:39:46.426Z,1140
2018-01-26T11:40:46.203Z,1085
2018-01-26T11:41:46.240Z,1070
2018-01-26T11:42:46.761Z,1045
2018-01-26T11:43:46.784Z,995
2018-01-26T11:44:46.825Z,1195
2018-01-26T11:45:46.336Z,1200
2018-01-26T11:46:46.677Z,1355
2018-01-26T11:47:46.395Z,1315
2018-01-26T11:48:46.675Z,1500
2018-01-26T11:49:46.953Z,1660
2018-01-26T11:50:47.241Z,1435
2018-01-26T11:51:46.755Z,1330
2018-01-26T11:52:47.290Z,1085
2018-01-26T11:53:47.067Z,1165
2018-01-26T11:54:47.152Z,1290
2018-01-26T11:55:47.147Z,1155
2018-01-26T11:56:46.900Z,1415
2018-01-26T11:57:46.943Z,1430
2018-01-26T11:58:46.969Z,1430
2018-01-26T11:59:46.994Z,1715
2018-01-26T12:00:47.020Z,1775
2018-01-26T12:01:47.311Z,1725
2018-01-26T12:02:47.330Z,1795
2018-01-26T12:03:47.362Z,2010
2018-01-26T12:04:47.647Z,1625
2018-01-26T12:05:47.177Z,1850
2018-01-26T12:06:47.471Z,1820
2018-01-26T12:07:47.736Z,2045
2018-01-26T12:08:47.266Z,1945
2018-01-26T12:09:47.552Z,1505
2018-01-26T12:10:47.078Z,1955
2018-01-26T12:11:47.134Z,2105
2018-01-26T12:12:47.396Z,1890
2018-01-26T12:13:47.681Z,1575
2018-01-26T12:14:47.710Z,2230
2018-01-26T12:15:47.990Z,1595
2018-01-26T12:16:47.280Z,765
2018-01-26T12:17:47.304Z,2030
2018-01-26T12:18:47.837Z,1440
2018-01-26T12:19:47.371Z,710
2018-01-26T12:20:47.645Z,820
2018-01-26T12:21:47.678Z,1490
2018-01-26T12:22:47.752Z,2535
2018-01-26T12:23:48.540Z,2100
2018-01-26T12:24:48.015Z,2190
2018-01-26T12:25:48.654Z,2480
2018-01-26T12:26:48.704Z,2425
2018-01-26T12:27:48.418Z,2015
2018-01-26T12:28:48.432Z,2285
2018-01-26T12:29:48.151Z,2450
2018-01-26T12:30:48.505Z,2305
2018-01-26T12:31:49.099Z,2225
2018-01-26T12:32:48.552Z,2095
2018-01-26T12:33:49.188Z,2015
2018-01-26T12:34:48.284Z,2040
2018-01-26T12:35:48.912Z,1980
2018-01-26T12:36:48.220Z,1960
2018-01-26T12:37:48.477Z,1940
2018-01-26T12:38:47.996Z,1975
2018-01-26T12:39:48.257Z,1990
2018-01-26T12:40:48.336Z,2030
2018-01-26T12:41:48.583Z,1975
2018-01-26T12:42:48.385Z,1925
2018-01-26T12:43:48.677Z,1875
2018-01-26T12:44:48.204Z,1915
2018-01-26T12:45:48.803Z,1955
2018-01-26T12:46:48.854Z,1505
2018-01-26T12:47:48.575Z,1525
2018-01-26T12:48:49.125Z,1545
2018-01-26T12:49:48.618Z,1080
2018-01-26T12:50:49.215Z,930
2018-01-26T12:51:48.680Z,765
2018-01-26T12:52:48.714Z,865
2018-01-26T12:53:48.767Z,1485
2018-01-26T12:54:48.808Z,1595
2018-01-26T12:55:48.853Z,1605
2018-01-26T12:56:49.165Z,1600
2018-01-26T12:57:49.164Z,1605
2018-01-26T12:58:48.405Z,1570
2018-01-26T12:59:49.212Z,1465
2018-01-26T13:00:49.228Z,1435
2018-01-26T13:01:48.765Z,1540
2018-01-26T13:02:49.350Z,1560
2018-01-26T13:03:49.071Z,1525
2018-01-26T13:04:49.098Z,1440
2018-01-26T13:05:49.136Z,1365
2018-01-26T13:06:49.421Z,1420
2018-01-26T13:07:48.914Z,1550
2018-01-26T13:08:48.965Z,1635
2018-01-26T13:09:49.512Z,1545
2018-01-26T13:10:49.021Z,1540
2018-01-26T13:11:49.291Z,1580
2018-01-26T13:12:49.603Z,1690
2018-01-26T13:13:49.657Z,1880
2018-01-26T13:14:49.411Z,1910
2018-01-26T13:15:49.688Z,1940
2018-01-26T13:16:49.209Z,1975
2018-01-26T13:17:49.237Z,1955
2018-01-26T13:18:50.065Z,2000
2018-01-26T13:19:49.557Z,2075
2018-01-26T13:20:49.597Z,2185
2018-01-26T13:21:49.883Z,2250
2018-01-26T13:22:49.951Z,2330
2018-01-26T13:23:49.188Z,2295
2018-01-26T13:24:50.008Z,2345
2018-01-26T13:25:50.019Z,2305
2018-01-26T13:26:49.815Z,2275
2018-01-26T13:27:49.582Z,2235
2018-01-26T13:28:50.099Z,2360
2018-01-26T13:29:50.126Z,2210
2018-01-26T13:30:49.932Z,1860
2018-01-26T13:31:50.490Z,1930
2018-01-26T13:32:50.057Z,2200
2018-01-26T13:33:50.527Z,2260
2018-01-26T13:34:49.814Z,2210
2018-01-26T13:35:50.603Z,2095
2018-01-26T13:36:49.847Z,1865
2018-01-26T13:37:49.912Z,1945
2018-01-26T13:38:49.666Z,2160
2018-01-26T13:39:50.541Z,1930
2018-01-26T13:40:50.803Z,1760
2018-01-26T13:41:49.978Z,1955
2018-01-26T13:42:50.503Z,1760
2018-01-26T13:43:50.283Z,1700
2018-01-26T13:44:50.341Z,2175
2018-01-26T13:45:50.116Z,2305
2018-01-26T13:46:50.637Z,2160
2018-01-26T13:47:50.419Z,2190
2018-01-26T13:48:50.713Z,2325
2018-01-26T13:49:50.977Z,1930
2018-01-26T13:50:50.513Z,2220
2018-01-26T13:51:51.066Z,2335
2018-01-26T13:52:50.575Z,2325
2018-01-26T13:53:50.353Z,1970
2018-01-26T13:54:50.895Z,300
2018-01-26T13:55:50.680Z,270
2018-01-26T13:56:50.700Z,250
2018-01-26T13:57:50.736Z,325
2018-01-26T13:58:51.018Z,275
2018-01-26T13:59:50.797Z,285
2018-01-26T14:00:50.575Z,290
2018-01-26T14:01:51.166Z,310
2018-01-26T14:02:51.138Z,330
2018-01-26T14:03:50.915Z,365
2018-01-26T14:04:50.691Z,400
2018-01-26T14:05:50.973Z,400
2018-01-26T14:06:51.453Z,410
2018-01-26T14:07:51.315Z,375
2018-01-26T14:08:51.308Z,380
2018-01-26T14:09:51.339Z,365
2018-01-26T14:10:51.619Z,315
2018-01-26T14:11:50.653Z,290
2018-01-26T14:12:51.427Z,280